EGGW/LTN METAR and TAF weather

Enter ICAO airport designator
Station Type Date Time Source
EGGW METAR 2019/02/23 02:50 UTC NOAA

EGGW 230250Z AUTO 15010KT 0100 R08/0400 FG VV/// 07/07 Q1033


Station Type Date Time Source
EGGW Decoded METAR 2019/02/23 02:50 UTC NOAA

Luton Airport , United Kingdom (EGGW) 51-52N 000-22W
Feb 22, 2019 - 09:50 PM EST / 2019.02.23 0250 UTC
Wind: from the SSE (150 degrees) at 12 MPH (10 KT):0
Visibility: less than 1 mile:0
Sky conditions: obscured
Weather: fog
Temperature: 44 F (7 C)
Dew Point: 44 F (7 C)
Relative Humidity: 100%
Pressure (altimeter): 30.50 in. Hg (1033 hPa)
ob: EGGW 230250Z AUTO 15010KT 0100 R08/0400 FG VV/// 07/07 Q1033
cycle: 3

Station Type Date Time Source
EGGW TAF 2019/02/22 22:08 UTC NOAA

TAF
AMD EGGW 222202Z 2222/2318 14008KT 2000 BR FEW001 SCT010
BECMG 2222/2301 0300 FG BKN001 PROB30
TEMPO 2301/2308 2000 BR SCT004
BECMG 2308/2311 6000 NSW BKN007
BECMG 2311/2314 9999 FEW010


Example: see airport list